sensor_id;sensor_type;location;lat;lon;timestamp;pressure;altitude;pressure_sealevel;temperature;humidity
49979;BME280;35869;50.990;6.962;2024-01-30T00:04:27;102499.69;;;7.29;100.00
49979;BME280;35869;50.990;6.962;2024-01-30T00:09:27;102497.09;;;7.26;100.00
49979;BME280;35869;50.990;6.962;2024-01-30T00:14:27;102492.81;;;7.22;100.00
49979;BME280;35869;50.990;6.962;2024-01-30T00:19:27;102485.03;;;7.20;100.00
49979;BME280;35869;50.990;6.962;2024-01-30T00:24:28;102485.91;;;7.15;100.00
49979;BME280;35869;50.990;6.962;2024-01-30T00:29:28;102483.34;;;7.12;100.00
49979;BME280;35869;50.990;6.962;2024-01-30T00:34:28;102487.69;;;7.10;100.00
49979;BME280;35869;50.990;6.962;2024-01-30T00:39:28;102475.63;;;7.04;100.00
49979;BME280;35869;50.990;6.962;2024-01-30T00:44:28;102476.47;;;7.11;100.00
49979;BME280;35869;50.990;6.962;2024-01-30T00:49:29;102479.94;;;6.99;100.00
49979;BME280;35869;50.990;6.962;2024-01-30T00:54:29;102478.19;;;6.97;100.00
49979;BME280;35869;50.990;6.962;2024-01-30T00:59:29;102471.31;;;6.92;100.00
49979;BME280;35869;50.990;6.962;2024-01-30T01:04:29;102475.59;;;6.90;100.00
49979;BME280;35869;50.990;6.962;2024-01-30T01:09:29;102466.16;;;6.86;100.00
49979;BME280;35869;50.990;6.962;2024-01-30T01:14:30;102469.59;;;6.87;100.00
49979;BME280;35869;50.990;6.962;2024-01-30T01:19:30;102479.94;;;6.81;100.00
49979;BME280;35869;50.990;6.962;2024-01-30T01:24:31;102477.34;;;6.82;100.00
49979;BME280;35869;50.990;6.962;2024-01-30T01:29:31;102483.38;;;6.77;100.00
49979;BME280;35869;50.990;6.962;2024-01-30T01:34:31;102482.53;;;6.82;100.00
49979;BME280;35869;50.990;6.962;2024-01-30T01:39:32;102479.94;;;6.78;100.00
49979;BME280;35869;50.990;6.962;2024-01-30T01:44:32;102481.66;;;6.76;100.00
49979;BME280;35869;50.990;6.962;2024-01-30T01:49:32;102475.63;;;6.72;100.00
49979;BME280;35869;50.990;6.962;2024-01-30T01:54:33;102474.78;;;6.72;100.00
49979;BME280;35869;50.990;6.962;2024-01-30T01:59:33;102468.72;;;6.74;100.00
49979;BME280;35869;50.990;6.962;2024-01-30T02:04:34;102460.13;;;6.78;100.00
49979;BME280;35869;50.990;6.962;2024-01-30T02:09:34;102461.84;;;6.79;100.00
49979;BME280;35869;50.990;6.962;2024-01-30T02:14:44;102460.13;;;6.75;100.00
49979;BME280;35869;50.990;6.962;2024-01-30T02:19:45;102460.13;;;6.75;100.00
49979;BME280;35869;50.990;6.962;2024-01-30T02:24:45;102459.25;;;6.78;100.00
49979;BME280;35869;50.990;6.962;2024-01-30T02:29:45;102460.13;;;6.75;100.00
49979;BME280;35869;50.990;6.962;2024-01-30T02:34:46;102453.25;;;6.80;100.00
49979;BME280;35869;50.990;6.962;2024-01-30T02:39:46;102442.91;;;6.77;100.00
49979;BME280;35869;50.990;6.962;2024-01-30T02:44:46;102449.78;;;6.84;100.00
49979;BME280;35869;50.990;6.962;2024-01-30T02:49:46;102441.16;;;6.79;100.00
49979;BME280;35869;50.990;6.962;2024-01-30T02:54:47;102432.56;;;6.83;100.00
49979;BME280;35869;50.990;6.962;2024-01-30T02:59:47;102434.25;;;6.80;100.00
49979;BME280;35869;50.990;6.962;2024-01-30T03:04:47;102430.81;;;6.79;100.00
49979;BME280;35869;50.990;6.962;2024-01-30T03:09:47;102429.97;;;6.79;100.00
49979;BME280;35869;50.990;6.962;2024-01-30T03:14:48;102430.00;;;6.80;100.00
49979;BME280;35869;50.990;6.962;2024-01-30T03:19:48;102431.69;;;6.77;100.00
49979;BME280;35869;50.990;6.962;2024-01-30T03:24:48;102428.25;;;6.79;100.00
49979;BME280;35869;50.990;6.962;2024-01-30T03:29:48;102420.47;;;6.79;100.00
49979;BME280;35869;50.990;6.962;2024-01-30T03:34:49;102417.03;;;6.83;100.00
49979;BME280;35869;50.990;6.962;2024-01-30T03:39:49;102418.75;;;6.84;100.00
49979;BME280;35869;50.990;6.962;2024-01-30T03:44:49;102416.19;;;6.84;100.00
49979;BME280;35869;50.990;6.962;2024-01-30T03:49:49;102407.56;;;6.82;100.00
49979;BME280;35869;50.990;6.962;2024-01-30T03:54:50;102406.72;;;6.83;100.00
49979;BME280;35869;50.990;6.962;2024-01-30T03:59:51;102404.13;;;6.86;100.00
49979;BME280;35869;50.990;6.962;2024-01-30T04:04:51;102405.84;;;6.83;100.00
49979;BME280;35869;50.990;6.962;2024-01-30T04:09:51;102398.09;;;6.83;100.00
49979;BME280;35869;50.990;6.962;2024-01-30T04:14:51;102396.38;;;6.77;100.00
49979;BME280;35869;50.990;6.962;2024-01-30T04:19:52;102401.56;;;6.76;100.00
49979;BME280;35869;50.990;6.962;2024-01-30T04:24:52;102396.38;;;6.77;100.00
49979;BME280;35869;50.990;6.962;2024-01-30T04:29:52;102396.38;;;6.80;100.00
49979;BME280;35869;50.990;6.962;2024-01-30T04:34:52;102390.34;;;6.74;100.00
49979;BME280;35869;50.990;6.962;2024-01-30T04:39:52;102397.25;;;6.72;100.00
49979;BME280;35869;50.990;6.962;2024-01-30T04:44:53;102398.09;;;6.77;100.00
49979;BME280;35869;50.990;6.962;2024-01-30T04:49:53;102398.97;;;6.73;100.00
49979;BME280;35869;50.990;6.962;2024-01-30T04:54:53;102404.16;;;6.71;100.00
49979;BME280;35869;50.990;6.962;2024-01-30T04:59:53;102397.25;;;6.70;100.00
49979;BME280;35869;50.990;6.962;2024-01-30T05:04:54;102394.69;;;6.70;100.00
49979;BME280;35869;50.990;6.962;2024-01-30T05:09:54;102399.84;;;6.67;100.00
49979;BME280;35869;50.990;6.962;2024-01-30T05:14:54;102398.13;;;6.71;100.00
49979;BME280;35869;50.990;6.962;2024-01-30T05:19:54;102397.25;;;6.61;100.00
49979;BME280;35869;50.990;6.962;2024-01-30T05:24:55;102394.69;;;6.58;100.00
49979;BME280;35869;50.990;6.962;2024-01-30T05:29:55;102395.56;;;6.57;100.00
49979;BME280;35869;50.990;6.962;2024-01-30T05:34:55;102391.25;;;6.54;100.00
49979;BME280;35869;50.990;6.962;2024-01-30T05:39:55;102390.38;;;6.51;100.00
49979;BME280;35869;50.990;6.962;2024-01-30T05:44:56;102385.22;;;6.49;100.00
49979;BME280;35869;50.990;6.962;2024-01-30T05:49:56;102380.03;;;6.49;100.00
49979;BME280;35869;50.990;6.962;2024-01-30T05:54:56;102385.22;;;6.43;100.00
49979;BME280;35869;50.990;6.962;2024-01-30T05:59:56;102385.22;;;6.48;100.00
49979;BME280;35869;50.990;6.962;2024-01-30T06:04:57;102384.38;;;6.39;100.00
49979;BME280;35869;50.990;6.962;2024-01-30T06:09:57;102380.03;;;6.38;100.00
49979;BME280;35869;50.990;6.962;2024-01-30T06:14:57;102386.06;;;6.37;100.00
49979;BME280;35869;50.990;6.962;2024-01-30T06:19:57;102384.38;;;6.41;100.00
49979;BME280;35869;50.990;6.962;2024-01-30T06:24:58;102375.75;;;6.44;100.00
49979;BME280;35869;50.990;6.962;2024-01-30T06:29:58;102381.78;;;6.46;100.00
49979;BME280;35869;50.990;6.962;2024-01-30T06:34:58;102380.03;;;6.43;100.00
49979;BME280;35869;50.990;6.962;2024-01-30T06:39:58;102365.44;;;6.40;100.00
49979;BME280;35869;50.990;6.962;2024-01-30T06:44:58;102374.03;;;6.49;100.00
49979;BME280;35869;50.990;6.962;2024-01-30T06:49:59;102372.28;;;6.45;100.00
49979;BME280;35869;50.990;6.962;2024-01-30T06:54:59;102372.31;;;6.48;100.00
49979;BME280;35869;50.990;6.962;2024-01-30T06:59:59;102377.44;;;6.51;100.00
49979;BME280;35869;50.990;6.962;2024-01-30T07:04:59;102371.44;;;6.49;100.00
49979;BME280;35869;50.990;6.962;2024-01-30T07:10:00;102375.75;;;6.54;100.00
49979;BME280;35869;50.990;6.962;2024-01-30T07:15:00;102379.19;;;6.52;100.00
49979;BME280;35869;50.990;6.962;2024-01-30T07:20:00;102385.22;;;6.54;100.00
49979;BME280;35869;50.990;6.962;2024-01-30T07:25:00;102379.19;;;6.52;100.00
49979;BME280;35869;50.990;6.962;2024-01-30T07:30:01;102385.19;;;6.51;100.00
49979;BME280;35869;50.990;6.962;2024-01-30T07:35:01;102393.81;;;6.70;100.00
49979;BME280;35869;50.990;6.962;2024-01-30T07:40:02;102405.00;;;6.61;100.00
49979;BME280;35869;50.990;6.962;2024-01-30T07:45:02;102407.59;;;6.59;100.00
49979;BME280;35869;50.990;6.962;2024-01-30T07:50:03;102409.31;;;6.70;100.00
49979;BME280;35869;50.990;6.962;2024-01-30T07:55:03;102404.16;;;6.70;100.00
49979;BME280;35869;50.990;6.962;2024-01-30T08:00:04;102406.72;;;6.73;100.00
49979;BME280;35869;50.990;6.962;2024-01-30T08:05:04;102412.75;;;6.78;100.00
49979;BME280;35869;50.990;6.962;2024-01-30T08:10:05;102422.22;;;6.74;100.00
49979;BME280;35869;50.990;6.962;2024-01-30T08:15:06;102420.47;;;6.85;100.00
49979;BME280;35869;50.990;6.962;2024-01-30T08:20:06;102416.16;;;7.00;100.00
49979;BME280;35869;50.990;6.962;2024-01-30T08:25:07;102416.19;;;6.92;100.00
49979;BME280;35869;50.990;6.962;2024-01-30T08:30:07;102408.38;;;7.01;100.00
49979;BME280;35869;50.990;6.962;2024-01-30T08:35:08;102402.34;;;7.10;100.00
49979;BME280;35869;50.990;6.962;2024-01-30T08:40:08;102407.53;;;7.10;100.00
49979;BME280;35869;50.990;6.962;2024-01-30T08:45:09;102419.56;;;7.12;100.00
49979;BME280;35869;50.990;6.962;2024-01-30T08:50:09;102429.91;;;7.09;100.00
49979;BME280;35869;50.990;6.962;2024-01-30T08:55:10;102432.50;;;7.11;100.00
49979;BME280;35869;50.990;6.962;2024-01-30T09:00:10;102432.47;;;7.20;100.00
49979;BME280;35869;50.990;6.962;2024-01-30T09:05:11;102440.19;;;7.31;100.00
49979;BME280;35869;50.990;6.962;2024-01-30T09:10:11;102447.94;;;7.41;100.00
49979;BME280;35869;50.990;6.962;2024-01-30T09:15:11;102447.91;;;7.44;100.00
49979;BME280;35869;50.990;6.962;2024-01-30T09:20:12;102448.69;;;7.69;100.00
49979;BME280;35869;50.990;6.962;2024-01-30T09:25:12;102452.94;;;7.78;100.00
49979;BME280;35869;50.990;6.962;2024-01-30T09:30:12;102465.91;;;7.72;100.00
49979;BME280;35869;50.990;6.962;2024-01-30T09:35:12;102475.31;;;7.97;100.00
49979;BME280;35869;50.990;6.962;2024-01-30T09:40:13;102471.84;;;7.91;100.00
49979;BME280;35869;50.990;6.962;2024-01-30T09:45:14;102475.31;;;7.97;100.00
49979;BME280;35869;50.990;6.962;2024-01-30T09:50:15;102473.47;;;8.16;100.00
49979;BME280;35869;50.990;6.962;2024-01-30T09:55:15;102480.41;;;8.10;100.00
49979;BME280;35869;50.990;6.962;2024-01-30T10:00:16;102476.81;;;8.29;100.00
49979;BME280;35869;50.990;6.962;2024-01-30T10:05:19;102488.84;;;8.42;100.00
49979;BME280;35869;50.990;6.962;2024-01-30T10:10:21;102487.00;;;8.63;100.00
49979;BME280;35869;50.990;6.962;2024-01-30T10:15:22;102484.31;;;8.70;100.00
49979;BME280;35869;50.990;6.962;2024-01-30T10:20:24;102478.19;;;8.82;100.00
49979;BME280;35869;50.990;6.962;2024-01-30T10:25:25;102472.06;;;8.88;100.00
49979;BME280;35869;50.990;6.962;2024-01-30T10:30:27;102481.38;;;9.10;100.00
49979;BME280;35869;50.990;6.962;2024-01-30T10:35:27;102483.88;;;9.18;100.00
49979;BME280;35869;50.990;6.962;2024-01-30T10:40:28;102471.03;;;9.05;100.00
49979;BME280;35869;50.990;6.962;2024-01-30T10:45:28;102462.06;;;9.37;100.00
49979;BME280;35869;50.990;6.962;2024-01-30T10:50:30;102469.75;;;9.46;100.00
49979;BME280;35869;50.990;6.962;2024-01-30T10:55:31;102463.66;;;9.50;100.00
49979;BME280;35869;50.990;6.962;2024-01-30T11:00:31;102465.22;;;9.64;100.00
49979;BME280;35869;50.990;6.962;2024-01-30T11:05:33;102463.28;;;9.78;100.00
49979;BME280;35869;50.990;6.962;2024-01-30T11:10:44;102451.09;;;9.83;100.00
49979;BME280;35869;50.990;6.962;2024-01-30T11:15:47;102448.28;;;10.00;100.00
49979;BME280;35869;50.990;6.962;2024-01-30T11:20:48;102462.03;;;10.06;100.00
49979;BME280;35869;50.990;6.962;2024-01-30T11:25:48;102458.34;;;10.23;100.00
49979;BME280;35869;50.990;6.962;2024-01-30T11:30:49;102448.88;;;10.20;100.00
49979;BME280;35869;50.990;6.962;2024-01-30T11:35:50;102447.66;;;10.43;100.00
49979;BME280;35869;50.990;6.962;2024-01-30T11:40:51;102443.09;;;10.55;100.00
49979;BME280;35869;50.990;6.962;2024-01-30T11:45:51;102443.09;;;10.55;100.00
49979;BME280;35869;50.990;6.962;2024-01-30T11:50:52;102446.38;;;10.66;100.00
49979;BME280;35869;50.990;6.962;2024-01-30T11:55:53;102440.34;;;10.67;100.00
49979;BME280;35869;50.990;6.962;2024-01-30T12:00:54;102454.78;;;10.82;100.00
49979;BME280;35869;50.990;6.962;2024-01-30T12:05:58;102458.03;;;10.95;100.00
49979;BME280;35869;50.990;6.962;2024-01-30T12:10:58;102458.66;;;11.08;100.00
49979;BME280;35869;50.990;6.962;2024-01-30T12:15:59;102449.88;;;11.15;100.00
49979;BME280;35869;50.990;6.962;2024-01-30T12:21:00;102455.84;;;11.18;100.00
49979;BME280;35869;50.990;6.962;2024-01-30T12:26:01;102447.16;;;11.19;100.00
49979;BME280;35869;50.990;6.962;2024-01-30T12:31:04;102452.13;;;11.33;100.00
49979;BME280;35869;50.990;6.962;2024-01-30T12:36:05;102451.19;;;11.36;100.00
49979;BME280;35869;50.990;6.962;2024-01-30T12:41:07;102450.13;;;11.46;100.00
49979;BME280;35869;50.990;6.962;2024-01-30T12:46:07;102457.00;;;11.50;100.00
49979;BME280;35869;50.990;6.962;2024-01-30T12:51:07;102463.78;;;11.57;100.00
49979;BME280;35869;50.990;6.962;2024-01-30T12:56:07;102461.94;;;11.62;100.00
49979;BME280;35869;50.990;6.962;2024-01-30T13:01:08;102467.03;;;11.68;100.00
49979;BME280;35869;50.990;6.962;2024-01-30T13:06:08;102469.56;;;11.71;100.00
49979;BME280;35869;50.990;6.962;2024-01-30T13:11:08;102471.25;;;11.72;100.00
49979;BME280;35869;50.990;6.962;2024-01-30T13:16:08;102469.47;;;11.76;100.00
49979;BME280;35869;50.990;6.962;2024-01-30T13:21:09;102479.06;;;11.72;100.00
49979;BME280;35869;50.990;6.962;2024-01-30T13:26:09;102483.69;;;11.61;100.00
49979;BME280;35869;50.990;6.962;2024-01-30T13:31:09;102479.16;;;11.69;100.00
49979;BME280;35869;50.990;6.962;2024-01-30T13:36:11;102480.19;;;11.62;100.00
49979;BME280;35869;50.990;6.962;2024-01-30T13:41:11;102478.47;;;11.60;100.00
49979;BME280;35869;50.990;6.962;2024-01-30T13:46:11;102484.19;;;11.79;100.00
49979;BME280;35869;50.990;6.962;2024-01-30T13:51:11;102484.25;;;11.75;100.00
49979;BME280;35869;50.990;6.962;2024-01-30T13:56:12;102489.91;;;11.96;100.00
49979;BME280;35869;50.990;6.962;2024-01-30T14:01:12;102484.09;;;11.40;100.00
49979;BME280;35869;50.990;6.962;2024-01-30T14:06:12;102487.09;;;11.63;100.00
49979;BME280;35869;50.990;6.962;2024-01-30T14:11:12;102485.81;;;11.84;100.00
49979;BME280;35869;50.990;6.962;2024-01-30T14:16:13;102502.25;;;11.88;100.00
49979;BME280;35869;50.990;6.962;2024-01-30T14:21:13;102498.38;;;11.64;100.00
49979;BME280;35869;50.990;6.962;2024-01-30T14:26:13;102493.38;;;11.53;100.00
49979;BME280;35869;50.990;6.962;2024-01-30T14:31:13;102502.19;;;11.91;100.00
49979;BME280;35869;50.990;6.962;2024-01-30T14:36:14;102496.44;;;11.72;100.00
49979;BME280;35869;50.990;6.962;2024-01-30T14:41:14;102502.97;;;11.94;100.00
49979;BME280;35869;50.990;6.962;2024-01-30T14:46:14;102500.69;;;11.78;100.00
49979;BME280;35869;50.990;6.962;2024-01-30T14:51:14;102496.50;;;11.70;100.00
49979;BME280;35869;50.990;6.962;2024-01-30T14:56:15;102499.78;;;11.82;100.00
49979;BME280;35869;50.990;6.962;2024-01-30T15:01:15;102505.13;;;11.74;100.00
49979;BME280;35869;50.990;6.962;2024-01-30T15:06:15;102515.78;;;11.60;100.00
49979;BME280;35869;50.990;6.962;2024-01-30T15:11:15;102513.84;;;11.71;100.00
49979;BME280;35869;50.990;6.962;2024-01-30T15:16:15;102511.94;;;11.80;100.00
49979;BME280;35869;50.990;6.962;2024-01-30T15:21:16;102519.78;;;11.78;100.00
49979;BME280;35869;50.990;6.962;2024-01-30T15:26:16;102527.84;;;11.67;100.00
49979;BME280;35869;50.990;6.962;2024-01-30T15:31:16;102531.97;;;11.76;100.00
49979;BME280;35869;50.990;6.962;2024-01-30T15:36:16;102538.97;;;11.74;100.00
49979;BME280;35869;50.990;6.962;2024-01-30T15:41:17;102552.00;;;11.74;100.00
49979;BME280;35869;50.990;6.962;2024-01-30T15:46:17;102567.72;;;11.69;100.00
49979;BME280;35869;50.990;6.962;2024-01-30T15:51:17;102578.09;;;11.71;100.00
49979;BME280;35869;50.990;6.962;2024-01-30T15:56:17;102591.44;;;11.56;100.00
49979;BME280;35869;50.990;6.962;2024-01-30T16:01:18;102598.13;;;11.69;100.00
49979;BME280;35869;50.990;6.962;2024-01-30T16:06:18;102617.59;;;11.50;100.00
49979;BME280;35869;50.990;6.962;2024-01-30T16:11:18;102619.50;;;11.37;100.00
49979;BME280;35869;50.990;6.962;2024-01-30T16:16:18;102634.22;;;11.41;100.00
49979;BME280;35869;50.990;6.962;2024-01-30T16:21:19;102639.47;;;11.38;100.00
49979;BME280;35869;50.990;6.962;2024-01-30T16:26:19;102643.03;;;11.31;100.00
49979;BME280;35869;50.990;6.962;2024-01-30T16:31:19;102648.41;;;11.21;100.00
49979;BME280;35869;50.990;6.962;2024-01-30T16:36:19;102646.47;;;11.34;100.00
49979;BME280;35869;50.990;6.962;2024-01-30T16:41:20;102655.34;;;11.23;100.00
49979;BME280;35869;50.990;6.962;2024-01-30T16:46:20;102660.66;;;11.16;100.00
49979;BME280;35869;50.990;6.962;2024-01-30T16:51:21;102663.28;;;11.13;100.00
49979;BME280;35869;50.990;6.962;2024-01-30T16:56:21;102670.44;;;10.99;100.00
49979;BME280;35869;50.990;6.962;2024-01-30T17:01:21;102681.78;;;10.95;100.00
49979;BME280;35869;50.990;6.962;2024-01-30T17:06:21;102690.53;;;10.91;100.00
49979;BME280;35869;50.990;6.962;2024-01-30T17:11:22;102700.94;;;10.89;100.00
49979;BME280;35869;50.990;6.962;2024-01-30T17:16:22;102711.41;;;10.86;100.00
49979;BME280;35869;50.990;6.962;2024-01-30T17:21:22;102719.28;;;10.80;100.00
49979;BME280;35869;50.990;6.962;2024-01-30T17:26:23;102722.97;;;10.62;100.00
49979;BME280;35869;50.990;6.962;2024-01-30T17:31:23;102742.09;;;10.58;100.00
49979;BME280;35869;50.990;6.962;2024-01-30T17:36:23;102743.81;;;10.59;100.00
49979;BME280;35869;50.990;6.962;2024-01-30T17:41:23;102749.13;;;10.50;100.00
49979;BME280;35869;50.990;6.962;2024-01-30T17:46:24;102765.69;;;10.40;100.00
49979;BME280;35869;50.990;6.962;2024-01-30T17:51:24;102771.75;;;10.40;100.00
49979;BME280;35869;50.990;6.962;2024-01-30T17:56:24;102785.69;;;10.35;100.00
49979;BME280;35869;50.990;6.962;2024-01-30T18:01:24;102795.25;;;10.30;100.00
49979;BME280;35869;50.990;6.962;2024-01-30T18:06:25;102802.34;;;10.09;100.00
49979;BME280;35869;50.990;6.962;2024-01-30T18:11:25;102802.34;;;10.09;100.00
49979;BME280;35869;50.990;6.962;2024-01-30T18:16:25;102802.31;;;10.12;100.00
49979;BME280;35869;50.990;6.962;2024-01-30T18:21:26;102801.50;;;10.07;100.00
49979;BME280;35869;50.990;6.962;2024-01-30T18:26:26;102808.50;;;9.99;100.00
49979;BME280;35869;50.990;6.962;2024-01-30T18:31:26;102812.03;;;9.92;100.00
49979;BME280;35869;50.990;6.962;2024-01-30T18:36:26;102810.34;;;9.86;100.00
49979;BME280;35869;50.990;6.962;2024-01-30T18:41:26;102809.56;;;9.74;100.00
49979;BME280;35869;50.990;6.962;2024-01-30T18:46:27;102814.78;;;9.74;100.00
49979;BME280;35869;50.990;6.962;2024-01-30T18:51:27;102822.63;;;9.60;100.00
49979;BME280;35869;50.990;6.962;2024-01-30T18:56:27;102831.25;;;9.67;100.00
49979;BME280;35869;50.990;6.962;2024-01-30T19:01:27;102843.41;;;9.63;100.00
49979;BME280;35869;50.990;6.962;2024-01-30T19:06:28;102842.53;;;9.61;100.00
49979;BME280;35869;50.990;6.962;2024-01-30T19:11:28;102853.81;;;9.55;100.00
49979;BME280;35869;50.990;6.962;2024-01-30T19:16:28;102874.59;;;9.52;100.00
49979;BME280;35869;50.990;6.962;2024-01-30T19:21:28;102876.31;;;9.53;100.00
49979;BME280;35869;50.990;6.962;2024-01-30T19:26:29;102868.56;;;9.50;100.00
49979;BME280;35869;50.990;6.962;2024-01-30T19:31:29;102869.47;;;9.40;100.00
49979;BME280;35869;50.990;6.962;2024-01-30T19:36:29;102861.69;;;9.37;100.00
49979;BME280;35869;50.990;6.962;2024-01-30T19:41:29;102866.91;;;9.34;100.00
49979;BME280;35869;50.990;6.962;2024-01-30T19:46:30;102871.25;;;9.33;100.00
49979;BME280;35869;50.990;6.962;2024-01-30T19:51:30;102879.03;;;9.30;100.00
49979;BME280;35869;50.990;6.962;2024-01-30T19:56:30;102887.72;;;9.26;100.00
49979;BME280;35869;50.990;6.962;2024-01-30T20:01:30;102886.00;;;9.22;100.00
49979;BME280;35869;50.990;6.962;2024-01-30T20:06:30;102894.63;;;9.20;100.00
49979;BME280;35869;50.990;6.962;2024-01-30T20:11:31;102898.09;;;9.22;100.00
49979;BME280;35869;50.990;6.962;2024-01-30T20:16:42;102909.38;;;9.16;100.00
49979;BME280;35869;50.990;6.962;2024-01-30T20:21:42;102918.03;;;9.09;100.00
49979;BME280;35869;50.990;6.962;2024-01-30T20:26:42;102918.91;;;9.10;100.00
49979;BME280;35869;50.990;6.962;2024-01-30T20:31:43;102915.44;;;9.07;100.00
49979;BME280;35869;50.990;6.962;2024-01-30T20:36:43;102925.84;;;8.98;100.00
49979;BME280;35869;50.990;6.962;2024-01-30T20:41:43;102918.06;;;9.00;100.00
49979;BME280;35869;50.990;6.962;2024-01-30T20:46:43;102934.50;;;8.97;100.00
49979;BME280;35869;50.990;6.962;2024-01-30T20:51:43;102927.56;;;8.95;100.00
49979;BME280;35869;50.990;6.962;2024-01-30T20:56:44;102930.16;;;8.90;100.00
49979;BME280;35869;50.990;6.962;2024-01-30T21:01:44;102943.16;;;8.92;100.00
49979;BME280;35869;50.990;6.962;2024-01-30T21:06:44;102937.94;;;8.90;100.00
49979;BME280;35869;50.990;6.962;2024-01-30T21:11:44;102949.19;;;8.85;100.00
49979;BME280;35869;50.990;6.962;2024-01-30T21:16:45;102950.06;;;8.85;100.00
49979;BME280;35869;50.990;6.962;2024-01-30T21:21:45;102950.06;;;8.82;100.00
49979;BME280;35869;50.990;6.962;2024-01-30T21:26:45;102955.25;;;8.79;100.00
49979;BME280;35869;50.990;6.962;2024-01-30T21:31:45;102956.13;;;8.73;100.00
49979;BME280;35869;50.990;6.962;2024-01-30T21:36:45;102955.25;;;8.73;100.00
49979;BME280;35869;50.990;6.962;2024-01-30T21:41:46;102955.28;;;8.74;100.00
49979;BME280;35869;50.990;6.962;2024-01-30T21:46:47;102959.59;;;8.69;100.00
49979;BME280;35869;50.990;6.962;2024-01-30T21:51:47;102959.59;;;8.72;100.00
49979;BME280;35869;50.990;6.962;2024-01-30T21:56:47;102972.53;;;8.62;100.00
49979;BME280;35869;50.990;6.962;2024-01-30T22:01:48;102976.88;;;8.58;100.00
49979;BME280;35869;50.990;6.962;2024-01-30T22:06:48;102975.16;;;8.57;100.00
49979;BME280;35869;50.990;6.962;2024-01-30T22:11:49;102974.31;;;8.57;100.00
49979;BME280;35869;50.990;6.962;2024-01-30T22:16:49;102976.88;;;8.53;100.00
49979;BME280;35869;50.990;6.962;2024-01-30T22:21:49;102976.88;;;8.52;100.00
49979;BME280;35869;50.990;6.962;2024-01-30T22:26:49;102976.88;;;8.41;100.00
49979;BME280;35869;50.990;6.962;2024-01-30T22:31:50;102988.09;;;8.43;100.00
49979;BME280;35869;50.990;6.962;2024-01-30T22:36:50;102982.91;;;8.43;100.00
49979;BME280;35869;50.990;6.962;2024-01-30T22:41:50;102985.50;;;8.37;100.00
49979;BME280;35869;50.990;6.962;2024-01-30T22:46:50;102995.88;;;8.40;100.00
49979;BME280;35869;50.990;6.962;2024-01-30T22:51:50;103008.81;;;8.36;100.00
49979;BME280;35869;50.990;6.962;2024-01-30T22:56:51;103021.78;;;8.36;100.00
49979;BME280;35869;50.990;6.962;2024-01-30T23:01:51;103029.53;;;8.33;100.00
49979;BME280;35869;50.990;6.962;2024-01-30T23:06:51;103031.22;;;8.27;100.00
49979;BME280;35869;50.990;6.962;2024-01-30T23:11:51;103037.25;;;8.23;100.00
49979;BME280;35869;50.990;6.962;2024-01-30T23:16:51;103034.66;;;8.25;100.00
49979;BME280;35869;50.990;6.962;2024-01-30T23:21:52;103031.19;;;8.20;100.00
49979;BME280;35869;50.990;6.962;2024-01-30T23:26:52;103041.56;;;8.20;100.00
49979;BME280;35869;50.990;6.962;2024-01-30T23:31:52;103053.66;;;8.18;100.00
49979;BME280;35869;50.990;6.962;2024-01-30T23:36:52;103046.72;;;8.14;100.00
49979;BME280;35869;50.990;6.962;2024-01-30T23:41:52;103051.03;;;8.10;100.00
49979;BME280;35869;50.990;6.962;2024-01-30T23:46:53;103048.38;;;7.96;100.00
49979;BME280;35869;50.990;6.962;2024-01-30T23:51:53;103051.00;;;7.99;100.00
49979;BME280;35869;50.990;6.962;2024-01-30T23:56:53;103042.38;;;7.97;100.00
